Last 24 Hours

UH Manoa Atmospheric Sciences

15 Minute Data | Pacific/Honolulu
as of 5/9/21 5:46 AM HST
Station Date Time Temp (°F) RH (%) Dew Pt (°F) Wind Spd (mph) Wind Dir (°) Wind Gust (mph) Latest Rain (In) Solar Rad (W/m2) Heat Index (°F) Barometric Pressure (inHg) Daily Rain (In) Daily Min Temp (°F) Daily Max Temp (°F) Daily Max Wind (mph)
UH Manoa Atmospheric Sciences 5/9/21 0545 73.5 84 68.4 1.6 ENE | 67 5.5 0.00 0 73.5 30.07 0.00 72.8 74.8 14.9
UH Manoa Atmospheric Sciences 5/9/21 0530 73.4 84 68.3 2.0 ENE | 65 6.9 0.00 0 73.4 30.06 0.00 72.8 74.8 14.9
UH Manoa Atmospheric Sciences 5/9/21 0515 73.3 83 68.0 1.8 NE | 52 6.9 0.00 0 73.3 30.06 0.00 72.8 74.8 14.9
UH Manoa Atmospheric Sciences 5/9/21 0500 73.1 84 68.0 2.8 ENE | 60 6.2 0.00 0 73.1 30.06 0.00 72.8 74.8 14.9
UH Manoa Atmospheric Sciences 5/9/21 0445 73.4 82 67.7 3.4 NE | 49 7.0 0.00 0 73.4 30.06 0.00 72.9 74.8 14.9
UH Manoa Atmospheric Sciences 5/9/21 0430 73.5 82 67.7 3.1 ENE | 62 6.8 0.00 0 73.5 30.06 0.00 72.9 74.8 14.9
UH Manoa Atmospheric Sciences 5/9/21 0415 73.5 81 67.4 3.1 NE | 46 6.9 0.00 0 73.5 30.06 0.00 72.9 74.8 14.9
UH Manoa Atmospheric Sciences 5/9/21 0400 74.4 79 67.4 4.0 ENE | 64 7.6 0.00 0 74.4 30.06 0.00 73.7 74.8 14.9
UH Manoa Atmospheric Sciences 5/9/21 0345 74.3 79 67.3 4.7 ENE | 61 10.4 0.00 0 74.3 30.06 0.00 73.7 74.8 14.9
UH Manoa Atmospheric Sciences 5/9/21 0330 74.2 79 67.4 5.0 ENE | 65 12.7 0.00 0 74.2 30.06 0.00 73.7 74.8 14.9
UH Manoa Atmospheric Sciences 5/9/21 0315 74.0 80 67.6 4.4 ENE | 59 9.5 0.00 0 74.0 30.06 0.00 73.7 74.8 14.9
UH Manoa Atmospheric Sciences 5/9/21 0300 73.9 80 67.5 4.5 ENE | 78 8.4 0.00 0 73.9 30.06 0.00 73.7 74.8 14.9
UH Manoa Atmospheric Sciences 5/9/21 0245 74.1 79 67.3 3.8 ENE | 76 7.4 0.00 0 74.1 30.06 0.00 73.7 74.8 14.9
UH Manoa Atmospheric Sciences 5/9/21 0230 74.2 79 67.2 4.9 ENE | 66 8.4 0.00 0 74.2 30.07 0.00 73.7 74.8 14.9
UH Manoa Atmospheric Sciences 5/9/21 0215 74.1 80 67.5 5.2 ENE | 62 10.7 0.00 0 74.1 30.07 0.00 73.7 74.8 14.9
UH Manoa Atmospheric Sciences 5/9/21 0200 74.2 80 67.6 5.3 ENE | 59 10.9 0.00 0 74.2 30.08 0.00 73.7 74.8 14.9
UH Manoa Atmospheric Sciences 5/9/21 0145 74.3 79 67.5 5.6 ENE | 61 10.3 0.00 0 74.3 30.08 0.00 73.8 74.8 14.9
UH Manoa Atmospheric Sciences 5/9/21 0130 74.2 80 67.7 6.2 ENE | 66 10.5 0.00 0 74.2 30.09 0.00 73.8 74.8 14.9
UH Manoa Atmospheric Sciences 5/9/21 0115 74.2 80 67.8 4.5 ENE | 65 8.4 0.00 0 74.2 30.09 0.00 73.8 74.8 14.9
UH Manoa Atmospheric Sciences 5/9/21 0100 74.3 80 67.6 5.9 ENE | 68 11.6 0.00 0 74.3 30.10 0.00 73.8 74.8 14.9
UH Manoa Atmospheric Sciences 5/9/21 0045 74.1 80 67.6 5.0 ENE | 65 10.1 0.00 0 74.1 30.10 0.00 73.8 74.8 14.9
UH Manoa Atmospheric Sciences 5/9/21 0030 74.1 81 67.8 6.7 ENE | 65 14.9 0.00 0 74.1 30.10 0.00 73.8 74.8 14.9
UH Manoa Atmospheric Sciences 5/9/21 0015 74.2 80 67.6 6.2 ENE | 64 12.8 0.00 0 74.2 30.11 0.00 73.8 74.8 12.8
UH Manoa Atmospheric Sciences 5/9/21 0000 74.5 79 67.5 5.8 NE | 55 12.2 0.00 0 74.5 30.11 0.02 73.2 82.0 22.0
UH Manoa Atmospheric Sciences 5/8/21 2345 74.3 79 67.2 6.1 ENE | 63 9.8 0.00 0 74.3 30.11 0.02 73.2 82.0 22.0
UH Manoa Atmospheric Sciences 5/8/21 2330 74.0 81 67.7 5.9 ENE | 69 9.3 0.00 0 74.0 30.12 0.02 73.2 82.0 22.0
UH Manoa Atmospheric Sciences 5/8/21 2315 73.5 84 68.4 4.4 NE | 51 9.8 0.00 0 73.5 30.12 0.02 73.2 82.0 22.0
UH Manoa Atmospheric Sciences 5/8/21 2300 73.8 82 68.0 4.7 ENE | 63 10.7 0.02 0 73.8 30.12 0.02 73.4 82.0 22.0
UH Manoa Atmospheric Sciences 5/8/21 2245 74.6 79 67.6 3.0 ENE | 65 7.2 0.00 0 74.6 30.12 0.00 74.2 82.0 22.0
UH Manoa Atmospheric Sciences 5/8/21 2230 74.5 79 67.7 3.8 ENE | 66 10.7 0.00 0 74.5 30.12 0.00 74.2 82.0 22.0
UH Manoa Atmospheric Sciences 5/8/21 2215 74.8 78 67.4 4.6 ENE | 65 10.0 0.00 0 74.8 30.11 0.00 74.2 82.0 22.0
UH Manoa Atmospheric Sciences 5/8/21 2200 74.9 77 67.3 6.0 ENE | 69 10.6 0.00 0 74.9 30.11 0.00 74.2 82.0 22.0
UH Manoa Atmospheric Sciences 5/8/21 2145 74.4 78 67.0 4.5 ENE | 67 10.2 0.00 0 74.4 30.11 0.00 74.2 82.0 22.0
UH Manoa Atmospheric Sciences 5/8/21 2130 74.8 76 66.9 5.2 ENE | 58 10.4 0.00 0 74.8 30.11 0.00 74.4 82.0 22.0
UH Manoa Atmospheric Sciences 5/8/21 2115 75.6 74 66.7 5.6 ENE | 60 11.0 0.00 0 75.6 30.11 0.00 74.4 82.0 22.0
UH Manoa Atmospheric Sciences 5/8/21 2100 75.6 73 66.6 6.7 NE | 55 12.6 0.00 0 75.6 30.10 0.00 74.4 82.0 22.0
UH Manoa Atmospheric Sciences 5/8/21 2045 75.8 72 66.0 6.5 ENE | 63 13.3 0.00 0 75.8 30.09 0.00 74.4 82.0 22.0
UH Manoa Atmospheric Sciences 5/8/21 2030 75.5 72 65.8 7.6 ENE | 67 12.7 0.00 0 75.5 30.09 0.00 74.4 82.0 22.0
UH Manoa Atmospheric Sciences 5/8/21 2015 75.3 72 65.7 8.2 ENE | 70 13.5 0.00 0 75.3 30.08 0.00 74.4 82.0 22.0
UH Manoa Atmospheric Sciences 5/8/21 2000 74.8 75 66.5 7.0 ENE | 66 13.5 0.00 0 74.8 30.08 0.00 74.4 82.0 22.0
UH Manoa Atmospheric Sciences 5/8/21 1945 74.7 76 66.8 7.7 ENE | 63 12.7 0.00 0 74.7 30.07 0.00 74.4 82.0 22.0
UH Manoa Atmospheric Sciences 5/8/21 1930 74.8 76 66.8 8.2 ENE | 68 15.0 0.00 0 74.8 30.07 0.00 74.4 82.0 22.0
UH Manoa Atmospheric Sciences 5/8/21 1915 75.1 77 67.3 6.7 ENE | 67 12.2 0.00 0 75.1 30.06 0.00 74.4 82.0 22.0
UH Manoa Atmospheric Sciences 5/8/21 1900 75.4 77 67.6 7.6 ENE | 60 14.9 0.00 8 75.4 30.05 0.00 74.4 82.0 22.0
UH Manoa Atmospheric Sciences 5/8/21 1845 76.2 74 67.2 7.3 NE | 52 14.4 0.00 49 76.2 30.05 0.00 74.4 82.0 22.0
UH Manoa Atmospheric Sciences 5/8/21 1830 76.9 72 67.1 6.8 ENE | 60 11.0 0.00 100 76.9 30.04 0.00 74.4 82.0 22.0
UH Manoa Atmospheric Sciences 5/8/21 1815 77.6 69 66.8 6.8 ENE | 58 11.4 0.00 152 77.6 30.04 0.00 74.4 82.0 22.0
UH Manoa Atmospheric Sciences 5/8/21 1800 77.6 68 66.4 11.0 NE | 42 18.8 0.00 203 77.6 30.03 0.00 74.4 82.0 22.0
UH Manoa Atmospheric Sciences 5/8/21 1745 78.1 68 66.6 8.2 NE | 49 20.0 0.00 260 78.1 30.03 0.00 74.4 82.0 22.0
UH Manoa Atmospheric Sciences 5/8/21 1730 78.1 68 66.6 9.9 NE | 43 19.4 0.00 301 78.1 30.03 0.00 74.4 82.0 22.0
UH Manoa Atmospheric Sciences 5/8/21 1715 78.1 67 66.4 10.9 NE | 39 17.9 0.00 365 78.1 30.03 0.00 74.4 82.0 22.0
UH Manoa Atmospheric Sciences 5/8/21 1700 78.4 67 66.4 10.9 NE | 38 19.0 0.00 422 78.4 30.03 0.00 74.4 82.0 22.0
UH Manoa Atmospheric Sciences 5/8/21 1645 78.8 65 66.2 9.4 NE | 38 16.3 0.00 486 78.8 30.03 0.00 74.4 82.0 22.0
UH Manoa Atmospheric Sciences 5/8/21 1630 78.9 66 66.6 9.8 NE | 41 21.5 0.00 544 78.9 30.02 0.00 74.4 82.0 22.0
UH Manoa Atmospheric Sciences 5/8/21 1615 78.7 67 67.0 10.3 NE | 42 20.6 0.00 596 78.7 30.02 0.00 74.4 82.0 22.0
UH Manoa Atmospheric Sciences 5/8/21 1600 79.5 66 67.0 9.0 NE | 42 17.7 0.00 598 79.7 30.02 0.00 74.4 82.0 22.0
UH Manoa Atmospheric Sciences 5/8/21 1545 79.8 64 66.4 9.3 NE | 44 19.8 0.00 707 80.5 30.03 0.00 74.4 82.0 22.0
UH Manoa Atmospheric Sciences 5/8/21 1530 79.7 63 66.2 9.6 NE | 47 21.4 0.00 741 80.6 30.03 0.00 74.4 82.0 22.0
UH Manoa Atmospheric Sciences 5/8/21 1515 79.9 64 66.4 8.6 NE | 54 18.4 0.00 718 80.7 30.03 0.00 74.4 82.0 22.0
UH Manoa Atmospheric Sciences 5/8/21 1500 79.9 63 66.0 8.3 NE | 51 17.9 0.00 698 80.6 30.03 0.00 74.4 82.0 22.0
UH Manoa Atmospheric Sciences 5/8/21 1445 79.9 62 65.7 9.1 NE | 49 16.0 0.00 842 80.5 30.03 0.00 74.4 82.0 22.0
UH Manoa Atmospheric Sciences 5/8/21 1430 80.0 62 65.8 9.6 NE | 46 17.5 0.00 697 81.2 30.04 0.00 74.4 82.0 22.0
UH Manoa Atmospheric Sciences 5/8/21 1415 80.7 59 65.3 8.5 NE | 42 16.0 0.00 948 82.6 30.04 0.00 74.4 82.0 22.0
UH Manoa Atmospheric Sciences 5/8/21 1400 79.6 61 65.1 10.9 NE | 41 18.7 0.00 982 79.9 30.04 0.00 74.4 82.0 22.0
UH Manoa Atmospheric Sciences 5/8/21 1345 79.8 59 64.4 9.9 NE | 39 21.1 0.00 991 80.6 30.05 0.00 74.4 82.0 22.0
UH Manoa Atmospheric Sciences 5/8/21 1330 80.2 59 64.7 8.7 NE | 47 18.1 0.00 922 81.3 30.05 0.00 74.4 82.0 22.0
UH Manoa Atmospheric Sciences 5/8/21 1315 80.4 59 64.8 7.6 NE | 46 20.6 0.00 989 81.6 30.06 0.00 74.4 82.0 22.0
UH Manoa Atmospheric Sciences 5/8/21 1300 80.2 58 64.1 8.9 NE | 46 19.4 0.00 1,021 81.3 30.06 0.00 74.4 81.4 22.0
UH Manoa Atmospheric Sciences 5/8/21 1245 79.3 59 63.7 11.1 NE | 41 18.6 0.00 1,032 79.6 30.07 0.00 74.4 80.5 22.0
UH Manoa Atmospheric Sciences 5/8/21 1230 79.9 56 62.9 9.2 NE | 41 19.6 0.00 1,015 80.5 30.07 0.00 74.4 80.5 22.0
UH Manoa Atmospheric Sciences 5/8/21 1215 79.6 57 63.2 10.9 NE | 39 20.9 0.00 1,038 80.0 30.07 0.00 74.4 80.5 22.0
UH Manoa Atmospheric Sciences 5/8/21 1200 79.4 57 62.7 10.8 NE | 38 22.0 0.00 1,014 79.6 30.08 0.00 74.4 80.5 22.0
UH Manoa Atmospheric Sciences 5/8/21 1145 79.2 59 63.5 11.0 NE | 39 20.2 0.00 999 79.2 30.08 0.00 74.4 80.5 20.5
UH Manoa Atmospheric Sciences 5/8/21 1130 79.5 59 63.9 9.1 NE | 42 18.9 0.00 995 79.8 30.08 0.00 74.4 80.5 20.5
UH Manoa Atmospheric Sciences 5/8/21 1115 79.1 59 63.7 8.9 NE | 44 20.5 0.00 940 79.1 30.08 0.00 74.4 80.0 20.5
UH Manoa Atmospheric Sciences 5/8/21 1100 78.9 60 63.6 10.5 NE | 40 18.2 0.00 856 78.9 30.09 0.00 74.4 79.8 20.5
UH Manoa Atmospheric Sciences 5/8/21 1045 78.6 61 64.2 9.4 NE | 44 16.2 0.00 825 78.6 30.09 0.00 74.4 79.8 20.5
UH Manoa Atmospheric Sciences 5/8/21 1030 78.7 61 64.0 8.7 NE | 44 20.5 0.00 841 78.7 30.09 0.00 74.4 79.8 20.5
UH Manoa Atmospheric Sciences 5/8/21 1015 78.9 59 63.4 9.6 NE | 44 18.6 0.00 820 78.9 30.09 0.00 74.4 79.8 19.8
UH Manoa Atmospheric Sciences 5/8/21 1000 78.9 59 63.5 7.2 NE | 55 13.8 0.00 816 78.9 30.09 0.00 74.4 79.8 19.8
UH Manoa Atmospheric Sciences 5/8/21 0945 78.8 60 63.7 6.7 NE | 55 15.4 0.00 763 78.8 30.10 0.00 74.4 79.8 19.8
UH Manoa Atmospheric Sciences 5/8/21 0930 78.5 60 63.3 7.8 ENE | 73 17.2 0.00 725 78.5 30.10 0.00 74.4 79.6 19.8
UH Manoa Atmospheric Sciences 5/8/21 0915 78.1 61 63.7 8.0 ENE | 62 18.7 0.00 697 78.1 30.10 0.00 74.4 79.2 19.8
UH Manoa Atmospheric Sciences 5/8/21 0900 77.8 62 63.8 7.8 ENE | 66 16.5 0.00 645 77.8 30.10 0.00 74.4 78.6 19.8
UH Manoa Atmospheric Sciences 5/8/21 0845 78.0 62 63.8 6.0 NE | 56 14.8 0.00 543 78.0 30.09 0.00 74.4 78.6 19.8
UH Manoa Atmospheric Sciences 5/8/21 0830 77.1 63 63.5 6.6 ENE | 58 16.8 0.00 479 77.1 30.09 0.00 74.4 77.9 19.8
UH Manoa Atmospheric Sciences 5/8/21 0815 76.6 64 63.5 7.8 ENE | 60 19.8 0.00 354 76.6 30.09 0.00 74.4 77.1 19.8
UH Manoa Atmospheric Sciences 5/8/21 0800 76.1 66 63.8 8.3 ENE | 61 18.5 0.00 352 76.1 30.08 0.00 74.4 76.7 19.8
UH Manoa Atmospheric Sciences 5/8/21 0745 75.9 67 64.1 8.0 ENE | 69 15.8 0.00 236 75.9 30.08 0.00 74.4 76.3 19.8
UH Manoa Atmospheric Sciences 5/8/21 0730 75.8 66 63.7 7.9 ENE | 65 14.9 0.00 267 75.8 30.07 0.00 74.4 76.1 19.8
UH Manoa Atmospheric Sciences 5/8/21 0715 75.1 68 64.0 5.5 ENE | 61 14.9 0.00 145 75.1 30.07 0.00 74.4 75.6 19.8
UH Manoa Atmospheric Sciences 5/8/21 0700 74.8 69 64.0 6.4 ENE | 59 12.4 0.00 59 74.8 30.06 0.00 74.4 75.6 19.8
UH Manoa Atmospheric Sciences 5/8/21 0645 74.9 68 63.8 7.1 ENE | 61 14.1 0.00 39 74.9 30.06 0.00 74.4 75.6 19.8
UH Manoa Atmospheric Sciences 5/8/21 0630 74.8 69 64.0 6.1 ENE | 60 12.4 0.00 22 74.8 30.06 0.00 74.4 75.6 19.8
UH Manoa Atmospheric Sciences 5/8/21 0615 74.8 68 63.8 7.1 NE | 51 14.6 0.00 8 74.8 30.05 0.00 74.4 75.6 19.8
UH Manoa Atmospheric Sciences 5/8/21 0600 74.9 68 63.7 6.9 ENE | 61 13.3 0.00 1 74.9 30.04 0.00 74.4 75.6 19.8
UH Manoa Atmospheric Sciences 5/8/21 0545 74.7 69 63.7 6.1 ENE | 66 14.4 0.00 0 74.7 30.04 0.00 74.4 75.6 19.8
Max     80.7 84 68.4 11.1 - 22.0 0.02 1,038 82.6 30.12 0.02 74.4 82.0 22.0
Avg     76.4 70 65.9 7.0 - 14.2 0.00 318 76.6 30.07 - - - -
Min     73.1 56 62.7 1.6 - 5.5 0.00 0 73.1 30.02 0.00 72.8 74.8 12.8